Time;durP1;ratioP1;P1;durP2;ratioP2;P2;SDS_P1;SDS_P2;PMS_P1;PMS_P2;Temp;Humidity;BMP_temperature;BMP_pressure;BME280_temperature;BME280_humidity;BME280_pressure;Samples;Min_cycle;Max_cycle;Signal;HPM_P1;HPM_P2
2022/01/14 00:00:58;;;;;;;35.15;13.75;;;7.80;99.90;;;;;;4774218;30;20057;-89
2022/01/14 00:03:24;;;;;;;39.42;15.75;;;7.80;99.90;;;;;;4789660;30;20052;-89
2022/01/14 00:05:50;;;;;;;42.42;13.43;;;9.40;99.90;;;;;;4774465;30;20058;-89
2022/01/14 00:08:16;;;;;;;30.85;12.55;;;;;;;;;;4789494;30;20051;-89
2022/01/14 00:10:49;;;;;;;38.67;14.55;;;;;;;;;;4788436;29;20134;-89
2022/01/14 00:13:40;;;;;;;42.90;14.02;;;7.60;99.90;;;;;;4774385;30;20047;-90
2022/01/14 00:16:02;;;;;;;39.45;13.68;;;8.00;99.90;;;;;;4789331;30;20140;-89
2022/01/14 00:18:28;;;;;;;36.90;13.90;;;8.00;99.90;;;;;;4773938;30;20493;-89
2022/01/14 00:20:53;;;;;;;40.45;15.00;;;8.30;99.90;;;;;;4774496;30;20103;-89
2022/01/14 00:23:26;;;;;;;47.15;13.93;;;8.60;99.90;;;;;;4774140;30;20505;-88
2022/01/14 00:34:05;;;;;;;54.13;15.68;;;7.20;99.90;;;;;;4789136;30;20055;-89
2022/01/14 00:36:31;;;;;;;43.63;12.68;;;7.20;99.90;;;;;;4788707;30;20050;-89
2022/01/14 00:38:57;;;;;;;48.58;13.80;;;8.20;99.90;;;;;;4788674;30;20047;-89
2022/01/14 00:41:23;;;;;;;44.95;12.80;;;7.40;99.90;;;;;;4773790;30;20470;-89
2022/01/14 00:43:52;;;;;;;41.58;12.88;;;7.70;99.90;;;;;;4788461;30;20047;-89
2022/01/14 00:46:17;;;;;;;54.42;13.43;;;8.00;99.90;;;;;;4788224;30;20066;-89
2022/01/14 00:48:43;;;;;;;57.13;14.68;;;7.30;99.90;;;;;;4773387;30;20059;-89
2022/01/14 00:51:09;;;;;;;50.42;12.90;;;9.40;99.90;;;;;;4773804;30;20078;-89
2022/01/14 00:53:35;;;;;;;53.33;13.90;;;9.20;99.90;;;;;;4772909;30;20579;-88
2022/01/14 00:56:20;;;;;;;52.20;14.85;;;8.50;99.90;;;;;;4788285;30;20051;-89
2022/01/14 00:59:17;;;;;;;42.63;14.57;;;7.50;99.90;;;;;;4772953;30;20043;-89
2022/01/14 01:01:50;;;;;;;46.95;14.10;;;7.20;99.90;;;;;;4772549;30;20044;-89
2022/01/14 01:04:19;;;;;;;38.97;13.88;;;7.30;99.90;;;;;;4773420;30;20047;-88
2022/01/14 01:06:46;;;;;;;32.08;11.98;;;8.80;99.90;;;;;;4773374;30;20546;-88
2022/01/14 01:09:13;;;;;;;36.63;12.75;;;7.50;99.90;;;;;;4788564;30;20404;-87
2022/01/14 01:11:48;;;;;;;44.90;15.48;;;9.50;99.90;;;;;;4788202;30;20058;-88
2022/01/14 01:14:19;;;;;;;36.28;13.65;;;10.10;99.90;;;;;;4787885;30;20066;-88
2022/01/14 01:16:45;;;;;;;38.70;13.80;;;10.00;99.90;;;;;;4788117;30;20039;-88
2022/01/14 01:19:11;;;;;;;48.53;13.82;;;8.60;99.90;;;;;;4788834;30;20509;-88
2022/01/14 01:21:38;;;;;;;33.45;12.27;;;8.90;99.90;;;;;;4788131;30;20424;-88
2022/01/14 01:24:04;;;;;;;31.05;12.02;;;7.90;99.90;;;;;;4787415;29;20055;-88
2022/01/14 01:26:34;;;;;;;37.30;14.15;;;7.80;99.90;;;;;;4773210;30;20054;-88
2022/01/14 01:31:38;;;;;;;33.92;12.30;;;10.20;99.90;;;;;;4787938;30;20151;-88
2022/01/14 01:34:09;;;;;;;36.95;13.65;;;8.50;99.90;;;;;;4787611;30;20082;-88
2022/01/14 01:36:35;;;;;;;45.40;14.25;;;7.70;99.90;;;;;;4787904;30;20059;-88
2022/01/14 01:39:03;;;;;;;34.03;13.13;;;8.20;99.90;;;;;;4787755;30;20130;-88
2022/01/14 01:41:29;;;;;;;34.03;13.07;;;10.10;99.90;;;;;;4787462;30;20513;-88
2022/01/14 01:43:55;;;;;;;45.40;13.93;;;9.10;99.90;;;;;;4787774;30;20101;-88
2022/01/14 01:46:23;;;;;;;44.70;14.57;;;10.00;99.90;;;;;;4783444;30;20107;-88
2022/01/14 01:48:51;;;;;;;40.03;13.73;;;7.70;99.90;;;;;;4772595;30;20059;-88
2022/01/14 01:51:18;;;;;;;42.30;12.95;;;8.90;99.90;;;;;;4787656;30;20047;-88
2022/01/14 01:53:44;;;;;;;49.08;13.30;;;9.40;99.90;;;;;;4802594;29;20051;-88
2022/01/14 01:56:10;;;;;;;45.47;14.05;;;8.80;99.90;;;;;;4787484;30;20047;-88
2022/01/14 01:58:36;;;;;;;35.38;13.75;;;9.50;99.90;;;;;;4787199;30;20100;-88
2022/01/14 02:01:04;;;;;;;46.10;14.48;;;7.60;99.90;;;;;;4787482;30;20107;-88
2022/01/14 02:03:31;;;;;;;35.35;12.70;;;9.90;99.90;;;;;;4787585;30;20066;-88
2022/01/14 02:05:57;;;;;;;39.40;12.90;;;7.70;99.90;;;;;;4788729;30;20520;-88
2022/01/14 02:08:23;;;;;;;35.20;12.65;;;;;;;;;;4771758;30;20066;-88
2022/01/14 02:10:49;;;;;;;35.65;12.45;;;7.70;99.90;;;;;;4786780;30;20055;-88
2022/01/14 02:13:16;;;;;;;33.88;13.10;;;8.20;99.90;;;;;;4788355;30;20058;-88
2022/01/14 02:15:47;;;;;;;42.90;14.32;;;8.10;99.90;;;;;;4787268;30;20378;-88
2022/01/14 02:18:39;;;;;;;39.20;13.85;;;8.60;99.90;;;;;;4787577;30;20059;-88
2022/01/14 02:24:08;;;;;;;40.47;13.77;;;9.10;99.90;;;;;;4787247;30;20063;-88
2022/01/14 02:26:47;;;;;;;35.25;12.45;;;9.00;99.90;;;;;;4787315;30;20051;-88
2022/01/14 02:29:13;;;;;;;37.65;13.13;;;7.50;99.90;;;;;;4772988;30;20058;-87
2022/01/14 02:31:39;;;;;;;36.25;13.75;;;8.10;99.90;;;;;;4772365;30;20079;-88
2022/01/14 02:34:05;;;;;;;36.42;14.55;;;9.70;99.90;;;;;;4788856;29;20055;-88
2022/01/14 02:36:32;;;;;;;37.22;13.50;;;7.90;99.90;;;;;;4775696;30;20065;-88
2022/01/14 02:38:59;;;;;;;36.72;13.25;;;9.30;99.90;;;;;;4790623;30;20501;-88
2022/01/14 02:41:25;;;;;;;35.25;12.95;;;10.10;99.90;;;;;;4775609;30;20055;-89
2022/01/14 02:43:50;;;;;;;31.65;12.35;;;9.40;99.90;;;;;;4792062;29;20413;-87
2022/01/14 02:46:16;;;;;;;38.05;13.10;;;9.30;99.90;;;;;;4790492;30;20132;-88
2022/01/14 02:48:42;;;;;;;27.73;12.25;;;8.40;99.90;;;;;;4790697;30;20412;-88
2022/01/14 02:51:12;;;;;;;30.52;12.15;;;9.60;99.90;;;;;;4790657;30;20062;-88
2022/01/14 02:56:07;;;;;;;33.45;13.60;;;8.60;99.90;;;;;;4791805;30;20479;-88
2022/01/14 02:58:35;;;;;;;38.17;12.73;;;9.40;99.90;;;;;;4790252;30;20555;-87
2022/01/14 03:01:05;;;;;;;30.38;12.30;;;7.60;99.90;;;;;;4790330;30;20143;-88
2022/01/14 03:03:32;;;;;;;33.55;13.05;;;8.10;99.90;;;;;;4790912;30;20063;-88
2022/01/14 03:06:01;;;;;;;36.22;12.50;;;7.70;99.90;;;;;;4790786;30;20520;-88
2022/01/14 03:08:26;;;;;;;35.95;12.68;;;8.70;99.90;;;;;;4790446;30;20055;-88
2022/01/14 03:10:58;;;;;;;39.83;13.13;;;8.50;99.90;;;;;;4790343;30;20513;-88
2022/01/14 03:13:24;;;;;;;37.50;13.82;;;9.90;99.90;;;;;;4790130;30;20043;-88
2022/01/14 03:15:50;;;;;;;33.83;12.88;;;9.40;99.90;;;;;;4775213;30;20055;-88
2022/01/14 03:18:22;;;;;;;28.98;12.75;;;9.90;99.90;;;;;;4774224;30;20047;-88
2022/01/14 03:20:50;;;;;;;33.25;12.88;;;10.00;99.90;;;;;;4790005;30;20202;-88
2022/01/14 03:23:18;;;;;;;28.48;12.93;;;7.80;99.90;;;;;;4789635;30;20108;-87
2022/01/14 03:25:48;;;;;;;33.83;11.40;;;9.60;99.90;;;;;;4789856;30;20055;-88
2022/01/14 03:28:18;;;;;;;31.65;11.05;;;7.90;99.90;;;;;;4789702;30;20063;-88
2022/01/14 03:30:44;;;;;;;25.25;10.60;;;7.40;99.90;;;;;;4791144;29;20433;-88
2022/01/14 03:33:10;;;;;;;32.17;10.68;;;7.50;99.90;;;;;;4790264;30;20107;-88
2022/01/14 03:35:36;;;;;;;28.52;10.05;;;7.40;99.90;;;;;;4774733;30;20057;-88
2022/01/14 03:38:02;;;;;;;35.03;10.40;;;7.70;99.90;;;;;;4789521;30;20412;-88
2022/01/14 03:40:28;;;;;;;32.28;10.40;;;8.40;99.90;;;;;;4790572;30;20051;-88
2022/01/14 03:42:54;;;;;;;26.42;9.25;;;7.70;99.90;;;;;;4774914;30;20051;-88
2022/01/14 03:49:25;;;;;;;27.77;11.63;;;7.40;99.90;;;;;;4772743;30;20121;-88
2022/01/14 03:51:50;;;;;;;41.78;11.80;;;7.40;99.90;;;;;;4756952;30;20498;-88
2022/01/14 03:54:16;;;;;;;26.23;9.70;;;7.90;99.90;;;;;;4756588;30;20135;-88
2022/01/14 03:56:42;;;;;;;25.75;10.15;;;8.40;99.90;;;;;;4771436;30;20078;-88
2022/01/14 03:59:07;;;;;;;26.95;9.43;;;9.30;99.90;;;;;;4756605;30;20044;-88
2022/01/14 04:01:33;;;;;;;30.35;11.02;;;9.10;99.90;;;;;;4771903;30;20139;-88
2022/01/14 04:03:59;;;;;;;24.05;9.73;;;9.60;99.90;;;;;;4772161;30;20436;-88
2022/01/14 04:06:31;;;;;;;23.75;9.73;;;7.50;99.90;;;;;;4771179;30;20043;-88
2022/01/14 04:08:57;;;;;;;21.95;9.48;;;9.00;99.90;;;;;;4772260;30;20059;-88
2022/01/14 04:11:23;;;;;;;34.35;10.00;;;9.80;99.90;;;;;;4771144;30;20477;-88
2022/01/14 04:13:52;;;;;;;27.55;9.68;;;8.50;99.90;;;;;;4771300;30;20040;-88
2022/01/14 04:16:19;;;;;;;29.17;9.75;;;9.20;99.90;;;;;;4771093;30;20094;-88
2022/01/14 04:18:46;;;;;;;27.33;8.82;;;9.70;99.90;;;;;;4770997;30;20489;-88
2022/01/14 04:21:11;;;;;;;32.50;10.25;;;9.50;99.90;;;;;;4771007;30;20051;-89
2022/01/14 04:23:37;;;;;;;39.42;11.23;;;9.70;99.90;;;;;;4756149;30;20115;-89
2022/01/14 04:26:03;;;;;;;33.63;10.52;;;9.60;99.90;;;;;;4755930;30;20106;-90
2022/01/14 04:28:32;;;;;;;27.05;10.80;;;9.20;99.90;;;;;;4771125;30;20085;-89
2022/01/14 04:30:59;;;;;;;30.77;11.20;;;9.10;99.90;;;;;;4771067;30;20456;-89
2022/01/14 04:33:27;;;;;;;32.47;10.73;;;7.70;99.90;;;;;;4770798;30;20054;-89
2022/01/14 04:35:59;;;;;;;31.02;11.38;;;6.70;99.90;;;;;;4756599;30;20051;-89
2022/01/14 04:38:26;;;;;;;42.13;13.02;;;8.70;99.90;;;;;;4755952;30;20055;-89
2022/01/14 04:40:52;;;;;;;40.78;12.13;;;8.90;99.90;;;;;;4755909;30;20135;-89
2022/01/14 04:43:20;;;;;;;40.35;12.43;;;7.20;99.90;;;;;;4770482;30;20146;-89
2022/01/14 04:46:02;;;;;;;41.50;13.32;;;8.10;99.90;;;;;;4770510;30;20131;-89
2022/01/14 04:48:30;;;;;;;31.52;11.60;;;7.20;99.90;;;;;;4782149;30;20059;-89
2022/01/14 04:50:56;;;;;;;38.55;12.38;;;9.40;99.90;;;;;;4788354;30;20121;-89
2022/01/14 04:53:22;;;;;;;35.17;11.48;;;9.00;99.90;;;;;;4773782;30;20047;-89
2022/01/14 04:55:50;;;;;;;36.72;11.75;;;9.40;99.90;;;;;;4773901;30;20044;-89
2022/01/14 04:58:16;;;;;;;26.33;11.10;;;7.20;99.90;;;;;;4788692;29;20453;-90
2022/01/14 05:00:42;;;;;;;43.08;12.35;;;8.30;99.90;;;;;;4788468;30;20094;-89
2022/01/14 05:03:08;;;;;;;29.45;11.63;;;7.00;99.90;;;;;;4773498;30;20082;-89
2022/01/14 05:05:35;;;;;;;37.42;11.50;;;9.30;99.90;;;;;;4773449;30;20134;-90
2022/01/14 05:08:01;;;;;;;45.63;12.68;;;7.20;99.90;;;;;;4788305;30;20059;-88
2022/01/14 05:12:53;;;;;;;32.00;12.27;;;8.20;99.90;;;;;;4787843;30;20138;-89
2022/01/14 05:15:20;;;;;;;48.70;14.15;;;8.10;99.90;;;;;;4788379;30;20143;-89
2022/01/14 05:17:46;;;;;;;47.08;12.80;;;7.10;99.90;;;;;;4788247;30;20090;-88
2022/01/14 05:20:13;;;;;;;39.97;11.43;;;8.90;99.90;;;;;;4787756;30;20058;-89
2022/01/14 05:22:39;;;;;;;36.08;10.77;;;7.20;99.90;;;;;;4789355;30;20043;-88
2022/01/14 05:25:07;;;;;;;33.90;10.85;;;9.70;99.90;;;;;;4788410;30;20051;-88
2022/01/14 05:27:34;;;;;;;28.05;10.70;;;7.20;99.90;;;;;;4788045;30;20062;-88
2022/01/14 05:30:00;;;;;;;30.13;10.52;;;8.10;99.90;;;;;;4787926;30;20055;-89
2022/01/14 05:32:27;;;;;;;38.58;11.52;;;8.00;99.90;;;;;;4787869;30;20513;-88
2022/01/14 05:34:52;;;;;;;32.42;11.32;;;7.60;99.90;;;;;;4786833;30;20044;-88
2022/01/14 05:37:18;;;;;;;30.27;10.93;;;9.00;99.90;;;;;;4787812;30;20185;-89
2022/01/14 05:39:44;;;;;;;33.90;10.30;;;7.80;99.90;;;;;;4772484;30;20050;-88
2022/01/14 05:42:10;;;;;;;39.88;10.85;;;7.90;99.90;;;;;;4787570;30;20066;-88
2022/01/14 05:44:37;;;;;;;28.35;10.05;;;7.50;99.90;;;;;;4788007;30;20051;-88
2022/01/14 05:47:04;;;;;;;37.72;11.00;;;9.00;99.90;;;;;;4786734;30;20050;-88
2022/01/14 05:49:30;;;;;;;29.02;9.95;;;7.20;99.90;;;;;;4788911;29;20408;-89
2022/01/14 05:51:56;;;;;;;30.73;9.63;;;9.50;99.90;;;;;;4787295;30;20053;-88
2022/01/14 05:54:22;;;;;;;27.20;7.95;;;7.30;99.90;;;;;;4772522;30;20051;-88
2022/01/14 05:56:48;;;;;;;38.10;9.73;;;9.80;99.90;;;;;;4772677;30;20051;-89
2022/01/14 05:59:14;;;;;;;29.17;8.63;;;7.70;99.90;;;;;;4787183;30;20047;-89
2022/01/14 06:01:40;;;;;;;39.22;8.57;;;7.70;99.90;;;;;;4772434;30;20453;-88
2022/01/14 06:04:07;;;;;;;29.02;7.03;;;7.40;99.90;;;;;;4787543;30;20130;-88
2022/01/14 06:06:34;;;;;;;25.90;7.75;;;8.60;99.90;;;;;;4787714;30;20462;-89
2022/01/14 06:09:00;;;;;;;29.60;9.25;;;8.50;99.90;;;;;;4787013;30;20094;-88
2022/01/14 06:11:26;;;;;;;30.98;7.78;;;9.90;99.90;;;;;;4787325;30;20108;-89
2022/01/14 06:13:52;;;;;;;29.52;8.18;;;9.20;99.90;;;;;;4772692;30;20066;-89
2022/01/14 06:16:19;;;;;;;30.65;8.20;;;8.70;99.90;;;;;;4772178;30;20058;-89
2022/01/14 06:18:45;;;;;;;21.17;7.43;;;7.70;99.90;;;;;;4772449;30;20043;-89
2022/01/14 06:21:11;;;;;;;24.95;7.20;;;9.70;99.90;;;;;;4772103;30;20058;-89
2022/01/14 06:23:37;;;;;;;41.67;8.02;;;9.70;99.90;;;;;;4787027;30;20047;-89
2022/01/14 06:26:03;;;;;;;29.48;7.50;;;7.40;99.90;;;;;;4786922;30;20413;-89
2022/01/14 06:28:29;;;;;;;27.27;7.47;;;7.30;99.90;;;;;;4787084;30;20059;-89
2022/01/14 06:30:55;;;;;;;30.27;7.78;;;9.30;99.90;;;;;;4787473;30;20047;-89
2022/01/14 06:33:20;;;;;;;23.73;7.00;;;9.10;99.90;;;;;;4772147;30;20120;-89
2022/01/14 06:35:46;;;;;;;27.15;7.32;;;7.50;99.90;;;;;;4772740;30;20047;-89
2022/01/14 06:38:12;;;;;;;18.65;6.07;;;9.10;99.90;;;;;;4772197;30;20054;-89
2022/01/14 06:40:38;;;;;;;25.45;6.97;;;9.60;99.90;;;;;;4787036;30;20058;-89
2022/01/14 06:43:08;;;;;;;24.50;6.97;;;7.80;99.90;;;;;;4786397;30;20054;-89
2022/01/14 06:45:33;;;;;;;25.65;7.72;;;7.90;99.90;;;;;;4772838;30;20072;-89
2022/01/14 06:48:00;;;;;;;22.98;7.22;;;7.20;99.90;;;;;;4781132;30;20580;-89
2022/01/14 06:50:26;;;;;;;24.38;6.80;;;7.20;99.90;;;;;;4772163;30;20061;-90
2022/01/14 06:52:52;;;;;;;24.85;6.57;;;8.30;99.90;;;;;;4787003;30;20051;-90
2022/01/14 06:55:19;;;;;;;26.13;8.15;;;7.60;99.90;;;;;;4786705;30;20055;-90
2022/01/14 06:57:44;;;;;;;27.27;6.80;;;7.50;99.90;;;;;;4771895;30;20143;-89
2022/01/14 07:00:13;;;;;;;23.63;7.35;;;7.60;99.90;;;;;;4786697;30;20142;-90
2022/01/14 07:02:39;;;;;;;24.55;7.13;;;7.20;99.90;;;;;;4772168;30;20390;-89
2022/01/14 07:05:06;;;;;;;24.20;6.97;;;8.00;99.90;;;;;;4787314;30;20077;-89
2022/01/14 07:07:32;;;;;;;26.95;7.22;;;7.60;99.90;;;;;;4772375;30;20384;-89
2022/01/14 07:09:58;;;;;;;26.30;7.10;;;8.70;99.90;;;;;;4772209;30;20689;-90
2022/01/14 07:12:26;;;;;;;29.70;7.80;;;8.00;99.90;;;;;;4787139;30;20055;-87
2022/01/14 07:14:53;;;;;;;16.55;7.10;;;7.80;99.90;;;;;;4786685;30;20476;-89
2022/01/14 07:17:20;;;;;;;29.13;7.32;;;9.70;99.90;;;;;;4771391;30;20142;-89
2022/01/14 07:19:48;;;;;;;18.55;6.35;;;7.50;99.90;;;;;;4785896;30;20062;-89
2022/01/14 07:22:14;;;;;;;18.48;6.38;;;8.90;99.90;;;;;;4788335;30;20115;-90
2022/01/14 07:24:40;;;;;;;26.38;6.32;;;7.40;99.90;;;;;;4771090;30;20569;-88
2022/01/14 07:27:07;;;;;;;25.77;6.60;;;7.60;99.90;;;;;;4773201;30;20134;-87
2022/01/14 07:29:32;;;;;;;17.80;6.05;;;7.50;99.90;;;;;;4771669;30;20508;-87
2022/01/14 07:31:58;;;;;;;20.60;5.57;;;8.20;99.90;;;;;;4786545;30;20054;-88
2022/01/14 07:34:25;;;;;;;22.35;5.85;;;7.50;99.90;;;;;;4772602;30;20056;-92
2022/01/14 07:36:52;;;;;;;16.35;5.88;;;7.60;99.90;;;;;;4787203;29;20059;-90
2022/01/14 07:39:19;;;;;;;24.48;5.95;;;7.80;99.90;;;;;;4787396;29;20471;-92
2022/01/14 07:41:46;;;;;;;24.63;5.28;;;7.90;99.90;;;;;;4788274;29;20090;-87
2022/01/14 07:44:16;;;;;;;15.48;4.30;;;7.90;99.90;;;;;;4787171;29;20067;-88
2022/01/14 07:46:42;;;;;;;30.92;5.05;;;7.70;99.90;;;;;;4786740;29;20783;-92
2022/01/14 07:49:08;;;;;;;22.92;5.47;;;7.80;99.90;;;;;;4786152;29;20051;-84
2022/01/14 07:51:34;;;;;;;16.85;4.90;;;5.80;99.90;;;;;;4788232;30;20471;-88
2022/01/14 07:54:05;;;;;;;26.45;5.15;;;7.40;99.90;;;;;;4780812;30;20602;-86
2022/01/14 07:56:45;;;;;;;15.70;4.22;;;9.50;99.90;;;;;;4764194;30;20125;-88
2022/01/14 07:59:12;;;;;;;21.30;4.70;;;9.30;99.90;;;;;;4770890;30;20043;-90
2022/01/14 08:01:38;;;;;;;13.10;3.30;;;9.40;99.90;;;;;;4770511;30;20134;-87
2022/01/14 08:04:05;;;;;;;19.90;4.28;;;7.70;99.90;;;;;;4773710;30;20133;-86
2022/01/14 08:06:32;;;;;;;19.23;3.35;;;9.60;99.90;;;;;;4773513;30;20055;-88
2022/01/14 08:08:59;;;;;;;14.90;3.58;;;7.70;99.90;;;;;;4773558;30;20043;-85
2022/01/14 08:11:25;;;;;;;22.25;4.07;;;7.60;99.90;;;;;;4786468;30;20047;-86
2022/01/14 08:13:50;;;;;;;20.77;3.80;;;7.90;99.90;;;;;;4783732;30;20055;-86
2022/01/14 08:16:16;;;;;;;16.98;3.88;;;8.00;99.90;;;;;;4787576;30;20088;-85
2022/01/14 08:18:42;;;;;;;16.83;3.28;;;7.70;99.90;;;;;;4788197;30;20051;-87
2022/01/14 08:21:08;;;;;;;23.65;4.15;;;7.60;99.90;;;;;;4788019;30;20047;-87
2022/01/14 08:23:33;;;;;;;20.33;3.83;;;9.80;99.90;;;;;;4773400;30;20416;-88
2022/01/14 08:25:59;;;;;;;24.77;4.07;;;8.70;99.90;;;;;;4788226;29;20043;-87
2022/01/14 08:28:26;;;;;;;23.40;4.10;;;8.90;99.90;;;;;;4787892;29;20082;-85
2022/01/14 08:30:52;;;;;;;21.40;3.78;;;10.10;99.90;;;;;;4787881;29;20054;-88
2022/01/14 08:33:18;;;;;;;25.00;4.32;;;9.70;99.90;;;;;;4772413;30;20059;-88
2022/01/14 08:35:45;;;;;;;17.48;3.92;;;7.60;99.90;;;;;;4772842;29;20050;-88
2022/01/14 08:38:11;;;;;;;19.10;3.83;;;7.60;99.90;;;;;;4780256;29;20051;-86
2022/01/14 08:40:37;;;;;;;17.98;2.92;;;9.20;99.90;;;;;;4770081;30;20056;-86
2022/01/14 08:43:03;;;;;;;20.00;3.65;;;8.70;99.90;;;;;;4769881;30;20464;-88
2022/01/14 08:45:28;;;;;;;18.67;3.50;;;8.40;99.90;;;;;;4770213;30;20048;-87
2022/01/14 08:47:55;;;;;;;18.75;3.65;;;7.60;99.90;;;;;;4769431;30;20097;-86
2022/01/14 08:50:23;;;;;;;19.17;3.45;;;7.90;99.90;;;;;;4769535;30;20047;-88
2022/01/14 08:52:49;;;;;;;14.68;3.33;;;7.70;99.90;;;;;;4769526;30;20112;-85
2022/01/14 08:55:16;;;;;;;16.42;4.75;;;9.20;99.90;;;;;;4780707;29;20467;-85
2022/01/14 08:57:44;;;;;;;16.20;3.30;;;9.70;99.90;;;;;;4765130;30;20048;-87
2022/01/14 09:00:12;;;;;;;20.77;3.55;;;8.00;99.90;;;;;;4776141;30;20047;-90
2022/01/14 09:02:38;;;;;;;20.70;3.35;;;8.00;99.90;;;;;;4772353;30;20051;-90
2022/01/14 09:05:04;;;;;;;19.00;3.65;;;7.60;99.90;;;;;;4772448;29;20043;-87
2022/01/14 09:07:30;;;;;;;21.60;3.67;;;7.80;99.90;;;;;;4772066;30;20425;-85
2022/01/14 09:09:56;;;;;;;26.00;3.65;;;9.70;99.90;;;;;;4787167;30;20044;-89
2022/01/14 09:12:22;;;;;;;26.65;4.05;;;7.70;99.90;;;;;;4787664;30;20141;-87
2022/01/14 09:14:51;;;;;;;30.20;4.55;;;9.10;99.90;;;;;;4787220;30;20134;-86
2022/01/14 09:17:17;;;;;;;19.00;3.58;;;8.70;99.90;;;;;;4787554;30;20078;-89
2022/01/14 09:19:44;;;;;;;17.67;4.13;;;9.20;99.90;;;;;;4787088;30;20056;-88
2022/01/14 09:22:15;;;;;;;20.60;3.58;;;7.80;99.90;;;;;;4772415;30;20074;-88
2022/01/14 09:24:41;;;;;;;12.25;4.00;;;10.20;99.90;;;;;;4772604;30;20472;-89
2022/01/14 09:27:07;;;;;;;14.95;3.72;;;10.30;99.90;;;;;;4772332;30;20049;-86
2022/01/14 09:29:36;;;;;;;22.13;3.58;;;8.10;99.90;;;;;;4786987;30;20044;-87
2022/01/14 09:32:02;;;;;;;20.45;3.60;;;7.10;99.90;;;;;;4786855;30;20135;-85
2022/01/14 09:34:27;;;;;;;22.38;4.00;;;7.90;99.90;;;;;;4771777;30;20140;-88
2022/01/14 09:36:53;;;;;;;17.58;3.85;;;9.90;99.90;;;;;;4786974;29;20104;-88
2022/01/14 09:39:20;;;;;;;16.73;3.50;;;8.10;99.90;;;;;;4771599;30;20548;-88
2022/01/14 09:41:47;;;;;;;23.15;3.10;;;10.40;99.90;;;;;;4771320;30;20094;-89
2022/01/14 09:44:17;;;;;;;19.02;4.00;;;7.90;99.90;;;;;;4771331;30;20411;-88
2022/01/14 09:46:43;;;;;;;20.83;4.10;;;9.80;99.90;;;;;;4772263;30;20051;-84
2022/01/14 09:49:13;;;;;;;17.27;3.47;;;8.10;99.90;;;;;;4777129;29;20493;-88
2022/01/14 09:51:42;;;;;;;21.85;4.25;;;8.10;99.90;;;;;;4775605;30;20090;-85
2022/01/14 09:54:10;;;;;;;19.33;3.33;;;8.80;99.90;;;;;;4786526;30;20059;-88
2022/01/14 09:56:37;;;;;;;21.08;3.38;;;9.00;99.90;;;;;;4786848;29;20108;-87
2022/01/14 09:59:04;;;;;;;20.30;3.63;;;10.50;99.90;;;;;;4783807;29;20130;-86
2022/01/14 10:01:37;;;;;;;16.15;3.33;;;10.40;99.90;;;;;;4786741;30;20059;-87
2022/01/14 10:04:06;;;;;;;19.70;3.95;;;8.80;99.90;;;;;;4771463;30;20055;-86
2022/01/14 10:06:35;;;;;;;21.80;4.22;;;8.40;99.90;;;;;;4771655;30;20493;-87
2022/01/14 10:09:04;;;;;;;17.50;3.88;;;8.00;99.90;;;;;;4767514;30;20059;-87
2022/01/14 10:11:30;;;;;;;24.65;4.18;;;10.50;99.90;;;;;;4784520;29;20115;-89
2022/01/14 10:14:05;;;;;;;27.13;3.60;;;8.10;99.90;;;;;;4786459;29;20126;-87
2022/01/14 10:16:31;;;;;;;16.80;3.57;;;8.00;99.90;;;;;;4782559;30;20055;-90
2022/01/14 10:18:57;;;;;;;26.20;3.75;;;8.10;99.90;;;;;;4771543;30;20666;-84
2022/01/14 10:21:34;;;;;;;19.88;3.40;;;6.20;99.90;;;;;;4771485;30;20051;-86
2022/01/14 10:24:00;;;;;;;27.58;4.40;;;7.90;99.90;;;;;;4771594;30;20378;-90
2022/01/14 10:26:27;;;;;;;15.38;3.53;;;7.90;99.90;;;;;;4771323;30;20044;-89
2022/01/14 10:29:00;;;;;;;18.52;3.47;;;10.60;99.90;;;;;;4786367;30;20058;-90
2022/01/14 10:31:33;;;;;;;20.58;3.90;;;8.30;99.90;;;;;;4771269;30;20558;-87
2022/01/14 10:34:10;;;;;;;17.25;3.97;;;8.00;99.90;;;;;;4771141;30;20513;-88
2022/01/14 10:36:35;;;;;;;20.35;4.35;;;8.10;99.90;;;;;;4771233;30;20112;-86
2022/01/14 10:39:22;;;;;;;22.67;4.00;;;8.30;99.90;;;;;;4785709;30;20455;-86
2022/01/14 10:41:48;;;;;;;26.10;3.60;;;10.10;99.90;;;;;;4771400;30;20048;-86
2022/01/14 10:44:30;;;;;;;19.80;4.75;;;8.20;99.90;;;;;;4768228;30;20101;-88
2022/01/14 10:47:16;;;;;;;32.90;4.32;;;8.20;99.90;;;;;;4752884;30;20047;-87
2022/01/14 10:49:43;;;;;;;24.07;4.03;;;8.30;99.90;;;;;;4767966;30;21067;-85
2022/01/14 10:52:11;;;;;;;18.40;3.85;;;8.20;99.90;;;;;;4767540;30;20047;-87
2022/01/14 10:54:43;;;;;;;21.83;4.28;;;8.30;99.90;;;;;;4768562;29;20051;-86
2022/01/14 10:57:16;;;;;;;22.10;4.10;;;8.10;99.90;;;;;;4774777;29;20051;-87
2022/01/14 10:59:42;;;;;;;21.83;4.57;;;8.30;99.90;;;;;;4774425;30;20130;-88
2022/01/14 11:02:32;;;;;;;30.73;4.50;;;8.20;99.90;;;;;;4774613;29;20185;-89
2022/01/14 11:05:09;;;;;;;15.52;4.57;;;8.30;99.90;;;;;;4789454;29;20047;-86
2022/01/14 11:07:35;;;;;;;22.83;4.95;;;8.20;99.90;;;;;;4789469;30;20069;-86
2022/01/14 11:10:12;;;;;;;18.17;3.35;;;9.30;99.90;;;;;;4774360;30;20393;-86
2022/01/14 11:12:39;;;;;;;24.88;4.72;;;8.20;99.90;;;;;;4774395;30;20044;-88
2022/01/14 11:15:07;;;;;;;23.08;3.85;;;10.10;99.90;;;;;;4774273;30;20136;-84
2022/01/14 11:17:32;;;;;;;14.98;3.60;;;8.20;99.90;;;;;;4788799;30;20051;-94
2022/01/14 11:19:59;;;;;;;21.77;3.78;;;6.50;99.90;;;;;;4775054;30;20120;-91
2022/01/14 11:25:11;;;;;;;22.30;3.50;;;8.20;99.90;;;;;;4788924;30;20412;-93
2022/01/14 11:27:38;;;;;;;22.65;4.00;;;8.10;99.90;;;;;;4773989;30;20142;-93
2022/01/14 11:30:12;;;;;;;20.42;3.72;;;8.60;99.90;;;;;;4773922;30;20093;-93
2022/01/14 11:32:54;;;;;;;25.08;4.03;;;8.50;99.90;;;;;;4774185;30;20051;-93
2022/01/14 11:35:22;;;;;;;28.42;4.35;;;8.20;99.90;;;;;;4773617;30;20667;-92
2022/01/14 11:37:49;;;;;;;25.88;5.07;;;8.70;99.90;;;;;;4773714;30;20047;-93
2022/01/14 11:40:15;;;;;;;21.13;3.85;;;9.60;99.90;;;;;;4773546;30;20405;-93
2022/01/14 11:42:46;;;;;;;35.88;6.47;;;10.40;99.90;;;;;;4773174;30;20509;-92
2022/01/14 11:45:15;;;;;;;23.70;4.75;;;10.80;99.90;;;;;;4774212;30;20573;-91
2022/01/14 11:47:43;;;;;;;28.17;4.47;;;8.20;99.90;;;;;;4774570;30;20455;-92
2022/01/14 11:50:19;;;;;;;28.05;4.07;;;8.60;99.90;;;;;;4772781;30;20150;-92
2022/01/14 11:52:50;;;;;;;18.42;4.13;;;8.60;99.90;;;;;;4773366;30;20054;-91
2022/01/14 11:55:20;;;;;;;21.42;4.53;;;8.30;99.90;;;;;;4773823;30;20090;-91
2022/01/14 11:57:50;;;;;;;27.55;4.65;;;8.50;99.90;;;;;;4788796;30;20131;-91
2022/01/14 12:00:25;;;;;;;28.73;4.30;;;8.30;99.90;;;;;;4788637;30;20122;-92
2022/01/14 12:03:25;;;;;;;26.65;4.60;;;8.50;99.90;;;;;;4773808;30;20051;-83
2022/01/14 12:05:57;;;;;;;21.35;3.95;;;8.50;99.90;;;;;;4746256;30;20063;-82
2022/01/14 12:08:28;;;;;;;26.30;4.53;;;8.70;99.90;;;;;;4771563;30;20058;-89
2022/01/14 12:10:59;;;;;;;22.75;4.70;;;8.30;99.90;;;;;;4770938;30;20047;-91
2022/01/14 12:13:37;;;;;;;23.60;4.55;;;8.50;99.90;;;;;;4770848;30;20051;-90
2022/01/14 12:16:37;;;;;;;26.67;4.38;;;8.50;99.90;;;;;;4756806;30;20116;-91
2022/01/14 12:19:03;;;;;;;28.00;4.18;;;7.70;99.90;;;;;;4770994;30;20056;-90
2022/01/14 12:21:39;;;;;;;23.70;4.20;;;8.90;99.90;;;;;;4770990;30;20078;-90
2022/01/14 12:24:17;;;;;;;35.65;4.95;;;9.40;99.90;;;;;;4755979;30;20051;-89
2022/01/14 12:26:43;;;;;;;27.65;4.32;;;8.60;99.90;;;;;;4754724;30;20146;-88
2022/01/14 12:29:12;;;;;;;25.85;4.43;;;8.90;99.90;;;;;;4755065;30;20466;-86
2022/01/14 12:32:05;;;;;;;22.27;4.20;;;10.80;99.90;;;;;;4770294;30;20052;-87
2022/01/14 12:34:32;;;;;;;30.33;4.82;;;8.80;99.90;;;;;;4755224;30;20083;-89
2022/01/14 12:36:59;;;;;;;33.47;5.35;;;8.90;99.90;;;;;;4770024;30;20040;-90
2022/01/14 12:39:25;;;;;;;23.45;3.97;;;9.00;99.90;;;;;;4770079;30;20118;-89
2022/01/14 12:41:52;;;;;;;28.80;4.68;;;8.80;99.90;;;;;;4755534;30;20134;-89
2022/01/14 12:44:17;;;;;;;30.63;4.20;;;8.80;99.90;;;;;;4770513;30;20138;-92
2022/01/14 12:46:58;;;;;;;24.20;4.55;;;9.60;99.90;;;;;;4771060;30;20086;-92
2022/01/14 12:49:40;;;;;;;26.15;4.05;;;8.90;99.90;;;;;;4751853;30;20055;-91
2022/01/14 12:52:44;;;;;;;30.42;4.13;;;10.70;99.90;;;;;;4757745;30;20051;-94
2022/01/14 12:55:34;;;;;;;33.15;4.82;;;9.60;99.90;;;;;;4772156;30;20066;-88
2022/01/14 12:58:07;;;;;;;21.60;4.55;;;10.80;99.90;;;;;;4770704;30;20561;-93
2022/01/14 13:30:44;;;;;;;39.05;4.55;;;8.50;99.90;;;;;;4780670;24;20029;-88
2022/01/14 13:33:15;;;;;;;29.92;4.78;;;8.60;99.90;;;;;;4772051;30;20451;-90
2022/01/14 13:35:44;;;;;;;33.67;4.82;;;8.70;99.90;;;;;;4786367;30;20125;-91
2022/01/14 13:38:13;;;;;;;28.30;4.80;;;9.00;99.90;;;;;;4786687;30;20062;-89
2022/01/14 13:40:57;;;;;;;26.15;5.10;;;8.80;99.90;;;;;;4787314;30;20485;-89
2022/01/14 13:43:31;;;;;;;29.38;4.63;;;8.60;99.90;;;;;;4788398;30;20093;-89
2022/01/14 13:46:07;;;;;;;31.88;4.75;;;11.20;99.90;;;;;;4787077;30;20146;-89